createdAt,value
2022-10-01T00:02:12.833Z,17.37
2022-10-01T00:04:40.256Z,17.37
2022-10-01T00:07:13.391Z,17.49
2022-10-01T00:09:40.732Z,17.69
2022-10-01T00:12:08.428Z,17.93
2022-10-01T00:14:39.294Z,18.07
2022-10-01T00:17:06.858Z,17.91
2022-10-01T00:19:33.935Z,17.80
2022-10-01T00:22:00.894Z,17.61
2022-10-01T00:24:28.534Z,17.72
2022-10-01T00:26:58.930Z,17.99
2022-10-01T00:29:26.154Z,17.91
2022-10-01T00:31:55.238Z,17.68
2022-10-01T00:34:22.606Z,17.99
2022-10-01T00:36:51.795Z,18.24
2022-10-01T00:39:21.400Z,18.08
2022-10-01T00:41:50.963Z,17.62
2022-10-01T00:44:37.624Z,17.35
2022-10-01T00:47:22.478Z,17.36
2022-10-01T00:49:59.419Z,17.65
2022-10-01T00:52:32.704Z,17.32
2022-10-01T00:55:18.297Z,17.45
2022-10-01T00:57:45.843Z,17.36
2022-10-01T01:00:19.303Z,17.28
2022-10-01T01:02:46.556Z,17.42
2022-10-01T01:05:15.820Z,17.98
2022-10-01T01:07:48.643Z,17.74
2022-10-01T01:10:20.870Z,17.89
2022-10-01T01:13:11.569Z,17.85
2022-10-01T01:16:00.772Z,17.53
2022-10-01T01:18:50.695Z,17.59
2022-10-01T01:21:32.847Z,17.74
2022-10-01T01:24:37.564Z,17.25
2022-10-01T01:27:31.479Z,16.97
2022-10-01T01:30:15.576Z,16.87
2022-10-01T01:33:14.735Z,17.15
2022-10-01T01:36:07.037Z,17.28
2022-10-01T01:38:43.229Z,17.40
2022-10-01T01:41:14.445Z,17.69
2022-10-01T01:43:48.277Z,17.96
2022-10-01T01:46:17.862Z,17.52
2022-10-01T01:48:50.316Z,18.08
2022-10-01T01:51:36.878Z,17.00
2022-10-01T01:54:04.252Z,17.08
2022-10-01T01:56:32.333Z,17.29
2022-10-01T01:59:01.225Z,17.24
2022-10-01T02:01:43.449Z,17.46
2022-10-01T02:04:41.210Z,17.84
2022-10-01T02:07:53.674Z,18.19
2022-10-01T02:11:15.901Z,18.46
2022-10-01T02:14:01.683Z,18.58
2022-10-01T02:16:38.819Z,18.61
2022-10-01T02:19:47.024Z,18.62
2022-10-01T02:22:28.674Z,18.23
2022-10-01T02:25:00.079Z,17.53
2022-10-01T02:27:38.471Z,18.03
2022-10-01T02:30:12.199Z,18.46
2022-10-01T02:32:46.518Z,18.19
2022-10-01T02:35:19.978Z,18.30
2022-10-01T02:37:52.984Z,18.07
2022-10-01T02:40:27.049Z,18.15
2022-10-01T02:43:08.687Z,18.07
2022-10-01T02:45:42.706Z,17.98
2022-10-01T02:48:19.428Z,17.87
2022-10-01T02:51:09.371Z,17.69
2022-10-01T02:53:47.509Z,17.75
2022-10-01T02:56:35.539Z,18.08
2022-10-01T02:59:08.503Z,18.34
2022-10-01T03:01:42.661Z,17.71
2022-10-01T03:04:09.895Z,17.81
2022-10-01T03:06:37.177Z,17.69
2022-10-01T03:09:08.840Z,17.43
2022-10-01T03:11:39.033Z,17.46
2022-10-01T03:14:11.956Z,17.51
2022-10-01T03:16:46.587Z,17.46
2022-10-01T03:19:14.437Z,17.80
2022-10-01T03:21:41.492Z,17.50
2022-10-01T03:24:08.682Z,17.64
2022-10-01T03:26:36.525Z,17.80
2022-10-01T03:29:05.200Z,18.04
2022-10-01T03:31:35.721Z,17.44
2022-10-01T03:34:05.861Z,17.58
2022-10-01T03:36:33.051Z,17.74
2022-10-01T03:39:05.936Z,17.61
2022-10-01T03:41:37.098Z,17.66
2022-10-01T03:44:05.017Z,17.61
2022-10-01T03:46:34.807Z,17.58
2022-10-01T03:49:02.200Z,17.57
2022-10-01T03:51:31.156Z,17.53
2022-10-01T03:54:00.683Z,17.40
2022-10-01T03:56:28.242Z,16.23
2022-10-01T03:58:58.433Z,15.05
2022-10-01T04:01:26.305Z,15.86
2022-10-01T04:03:54.217Z,16.05
2022-10-01T04:06:23.673Z,16.33
2022-10-01T04:08:50.909Z,16.79
2022-10-01T04:11:18.124Z,17.02
2022-10-01T04:13:45.138Z,16.56
2022-10-01T04:16:12.482Z,14.39
2022-10-01T04:18:39.711Z,15.29
2022-10-01T04:21:10.238Z,15.94
2022-10-01T04:23:37.381Z,16.30
2022-10-01T04:26:04.751Z,16.47
2022-10-01T04:28:32.288Z,16.49
2022-10-01T04:31:18.651Z,16.31
2022-10-01T04:33:46.077Z,16.45
2022-10-01T04:36:15.627Z,16.76
2022-10-01T04:38:44.385Z,16.81
2022-10-01T04:41:14.289Z,16.70
2022-10-01T04:43:41.613Z,16.64
2022-10-01T04:46:08.693Z,16.82
2022-10-01T04:48:39.764Z,16.63
2022-10-01T04:51:10.328Z,16.67
2022-10-01T04:53:37.509Z,16.60
2022-10-01T04:56:05.578Z,16.42
2022-10-01T04:58:32.925Z,16.36
2022-10-01T05:01:02.241Z,16.45
2022-10-01T05:03:32.824Z,16.69
2022-10-01T05:06:00.067Z,16.56
2022-10-01T05:08:27.305Z,16.65
2022-10-01T05:10:54.466Z,16.63
2022-10-01T05:13:24.005Z,16.74
2022-10-01T05:15:52.449Z,16.73
2022-10-01T05:18:21.441Z,16.81
2022-10-01T05:20:48.721Z,16.78
2022-10-01T05:23:18.778Z,17.06
2022-10-01T05:25:47.118Z,16.98
2022-10-01T05:28:19.862Z,17.04
2022-10-01T05:30:49.471Z,16.91
2022-10-01T05:33:16.967Z,16.93
2022-10-01T05:35:44.702Z,17.02
2022-10-01T05:38:14.868Z,17.27
2022-10-01T05:40:46.720Z,17.07
2022-10-01T05:43:14.940Z,17.20
2022-10-01T05:45:43.192Z,17.42
2022-10-01T05:48:12.956Z,17.89
2022-10-01T05:50:40.951Z,17.64
2022-10-01T05:53:11.281Z,16.96
2022-10-01T05:55:41.347Z,17.65
2022-10-01T05:58:12.697Z,17.23
2022-10-01T06:00:44.265Z,17.43
2022-10-01T06:03:17.020Z,17.58
2022-10-01T06:05:49.574Z,17.86
2022-10-01T06:08:17.123Z,17.68
2022-10-01T06:10:44.508Z,17.83
2022-10-01T06:13:17.857Z,17.85
2022-10-01T06:15:48.492Z,18.04
2022-10-01T06:18:15.638Z,17.64
2022-10-01T06:20:45.203Z,17.81
2022-10-01T06:23:14.284Z,17.95
2022-10-01T06:25:43.725Z,17.72
2022-10-01T06:28:16.613Z,18.18
2022-10-01T06:30:52.403Z,18.50
2022-10-01T06:33:20.290Z,18.91
2022-10-01T06:35:52.317Z,18.97
2022-10-01T06:38:23.260Z,18.77
2022-10-01T06:41:08.237Z,19.78
2022-10-01T06:43:38.473Z,19.84
2022-10-01T06:46:11.859Z,20.03
2022-10-01T06:48:43.417Z,19.38
2022-10-01T06:51:18.171Z,18.08
2022-10-01T06:53:48.182Z,18.28
2022-10-01T06:56:19.999Z,18.14
2022-10-01T06:58:57.389Z,18.24
2022-10-01T07:01:30.526Z,18.25
2022-10-01T07:04:03.205Z,18.17
2022-10-01T07:06:36.883Z,17.98
2022-10-01T07:09:06.986Z,17.72
2022-10-01T07:11:53.214Z,17.46
2022-10-01T07:14:33.871Z,17.74
2022-10-01T07:17:10.301Z,17.11
2022-10-01T07:19:44.354Z,16.96
2022-10-01T07:22:14.479Z,16.89
2022-10-01T07:24:43.709Z,16.74
2022-10-01T07:27:16.122Z,16.79
2022-10-01T07:29:51.609Z,16.91
2022-10-01T07:32:26.812Z,17.80
2022-10-01T07:34:53.954Z,18.30
2022-10-01T07:37:21.742Z,19.12
2022-10-01T07:39:57.203Z,19.20
2022-10-01T07:42:24.623Z,19.50
2022-10-01T07:44:55.396Z,19.18
2022-10-01T07:47:22.599Z,19.39
2022-10-01T07:49:50.942Z,19.72
2022-10-01T07:52:18.041Z,19.70
2022-10-01T07:54:45.050Z,19.73
2022-10-01T07:57:12.232Z,20.01
2022-10-01T07:59:41.001Z,20.21
2022-10-01T08:02:19.145Z,20.38
2022-10-01T08:05:05.135Z,19.59
2022-10-01T08:07:32.365Z,18.12
2022-10-01T08:09:59.527Z,17.98
2022-10-01T08:12:34.732Z,17.98
2022-10-01T08:15:09.837Z,18.22
2022-10-01T08:17:38.787Z,18.16
2022-10-01T08:20:09.791Z,18.04
2022-10-01T08:22:41.698Z,18.30
2022-10-01T08:25:10.096Z,19.10
2022-10-01T08:27:37.858Z,19.04
2022-10-01T08:30:09.281Z,19.06
2022-10-01T08:32:36.434Z,19.15
2022-10-01T08:35:05.218Z,19.33
2022-10-01T08:37:32.371Z,18.39
2022-10-01T08:39:59.563Z,18.49
2022-10-01T08:42:39.971Z,18.37
2022-10-01T08:45:23.702Z,18.11
2022-10-01T08:48:13.555Z,17.89
2022-10-01T08:51:04.723Z,18.11
2022-10-01T08:53:45.497Z,18.37
2022-10-01T08:56:27.918Z,18.53
2022-10-01T08:59:28.580Z,18.94
2022-10-01T09:01:59.181Z,19.02
2022-10-01T09:04:29.649Z,19.11
2022-10-01T09:07:28.849Z,19.32
2022-10-01T09:10:43.470Z,18.80
2022-10-01T09:14:13.130Z,18.69
2022-10-01T09:17:36.610Z,18.82
2022-10-01T09:20:31.609Z,19.62
2022-10-01T09:23:29.886Z,19.72
2022-10-01T09:25:59.816Z,19.37
2022-10-01T09:28:33.579Z,19.12
2022-10-01T09:31:27.206Z,19.78
2022-10-01T09:34:12.699Z,19.85
2022-10-01T09:37:19.001Z,20.34
2022-10-01T09:40:27.580Z,19.95
2022-10-01T09:42:58.781Z,20.12
2022-10-01T09:45:29.504Z,19.62
2022-10-01T09:48:23.084Z,19.71
2022-10-01T09:51:13.181Z,19.75
2022-10-01T09:53:58.364Z,19.66
2022-10-01T09:57:05.923Z,20.34
2022-10-01T10:00:15.713Z,20.25
2022-10-01T10:02:49.222Z,20.27
2022-10-01T10:05:39.865Z,20.41
2022-10-01T10:08:33.905Z,20.44
2022-10-01T10:11:21.932Z,19.36
2022-10-01T10:14:04.669Z,19.17
2022-10-01T10:16:37.925Z,19.30
2022-10-01T10:19:19.214Z,19.56
2022-10-01T10:21:59.826Z,20.62
2022-10-01T10:24:35.136Z,19.24
2022-10-01T10:27:07.093Z,20.27
2022-10-01T10:29:39.273Z,20.32
2022-10-01T10:32:29.551Z,21.65
2022-10-01T10:35:07.820Z,21.03
2022-10-01T10:37:48.478Z,21.04
2022-10-01T10:40:29.514Z,20.50
2022-10-01T10:43:01.674Z,21.44
2022-10-01T10:45:39.459Z,23.17
2022-10-01T10:48:20.567Z,22.68
2022-10-01T10:50:55.689Z,21.43
2022-10-01T10:53:31.313Z,20.88
2022-10-01T10:56:02.077Z,22.17
2022-10-01T10:58:44.055Z,20.69
2022-10-01T11:01:22.190Z,21.12
2022-10-01T11:03:56.236Z,22.76
2022-10-01T11:06:24.229Z,21.02
2022-10-01T11:09:08.393Z,20.65
2022-10-01T11:12:05.319Z,21.92
2022-10-01T11:15:17.038Z,25.05
2022-10-01T11:17:55.352Z,22.51
2022-10-01T11:20:56.063Z,22.74
2022-10-01T11:23:50.351Z,22.98
2022-10-01T11:26:57.781Z,24.86
2022-10-01T11:29:59.680Z,26.34
2022-10-01T11:32:46.190Z,23.88
2022-10-01T11:35:55.601Z,20.47
2022-10-01T11:38:43.700Z,22.98
2022-10-01T11:41:21.046Z,25.06
2022-10-01T11:44:04.380Z,23.59
2022-10-01T11:46:54.376Z,24.63
2022-10-01T11:49:51.785Z,22.43
2022-10-01T11:52:24.998Z,21.61
2022-10-01T11:55:24.410Z,22.34
2022-10-01T11:58:36.236Z,21.66
2022-10-01T12:01:26.166Z,22.67
2022-10-01T12:03:56.239Z,23.71
2022-10-01T12:06:56.912Z,21.88
2022-10-01T12:09:38.978Z,22.23
2022-10-01T12:12:17.651Z,21.88
2022-10-01T12:15:16.333Z,21.88
2022-10-01T12:18:06.625Z,23.04
2022-10-01T12:20:53.789Z,22.46
2022-10-01T12:23:28.513Z,23.50
2022-10-01T12:26:35.905Z,23.50
2022-10-01T12:29:55.406Z,21.96
2022-10-01T12:32:34.204Z,23.61
2022-10-01T12:35:37.530Z,23.34
2022-10-01T12:38:37.458Z,22.39
2022-10-01T12:41:07.731Z,24.07
2022-10-01T12:44:11.846Z,22.45
2022-10-01T12:46:49.963Z,21.52
2022-10-01T12:49:49.571Z,22.22
2022-10-01T12:52:38.703Z,22.19
2022-10-01T12:55:55.007Z,22.31
2022-10-01T12:59:03.178Z,23.41
2022-10-01T13:01:46.240Z,24.51
2022-10-01T13:04:25.763Z,23.52
2022-10-01T13:07:19.001Z,22.97
2022-10-01T13:10:04.398Z,22.39
2022-10-01T13:13:02.460Z,24.60
2022-10-01T13:15:39.636Z,22.12
2022-10-01T13:18:40.196Z,22.04
2022-10-01T13:21:21.953Z,21.33
2022-10-01T13:24:24.345Z,20.82
2022-10-01T13:26:57.886Z,19.99
2022-10-01T13:29:44.144Z,20.57
2022-10-01T13:32:56.360Z,21.48
2022-10-01T13:35:56.364Z,21.53
2022-10-01T13:38:57.209Z,20.41
2022-10-01T13:41:37.586Z,19.87
2022-10-01T13:44:12.915Z,19.46
2022-10-01T13:47:10.152Z,19.98
2022-10-01T13:49:43.845Z,19.34
2022-10-01T13:52:22.801Z,18.94
2022-10-01T13:55:00.799Z,17.24
2022-10-01T13:57:40.980Z,16.82
2022-10-01T14:00:23.267Z,16.83
2022-10-01T14:03:26.537Z,17.34
2022-10-01T14:05:58.896Z,17.44
2022-10-01T14:09:00.338Z,17.34
2022-10-01T14:11:52.159Z,17.36
2022-10-01T14:14:56.989Z,18.13
2022-10-01T14:17:32.605Z,18.43
2022-10-01T14:20:01.654Z,18.09
2022-10-01T14:23:15.687Z,17.81
2022-10-01T14:26:27.656Z,17.83
2022-10-01T14:29:37.303Z,17.65
2022-10-01T14:32:38.008Z,17.51
2022-10-01T14:35:42.143Z,17.81
2022-10-01T14:38:21.250Z,17.83
2022-10-01T14:40:54.073Z,18.06
2022-10-01T14:43:28.487Z,18.29
2022-10-01T14:46:15.607Z,18.03
2022-10-01T14:48:45.178Z,18.46
2022-10-01T14:51:53.353Z,20.65
2022-10-01T14:54:28.670Z,20.95
2022-10-01T14:56:56.992Z,21.67
2022-10-01T14:59:40.753Z,21.51
2022-10-01T15:02:27.516Z,21.02
2022-10-01T15:05:00.796Z,20.70
2022-10-01T15:07:39.455Z,21.08
2022-10-01T15:10:11.537Z,19.25
2022-10-01T15:12:42.979Z,20.09
2022-10-01T15:15:36.226Z,20.27
2022-10-01T15:18:09.117Z,19.90
2022-10-01T15:20:40.418Z,20.24
2022-10-01T15:23:09.037Z,20.26
2022-10-01T15:25:38.668Z,20.76
2022-10-01T15:28:30.157Z,20.24
2022-10-01T15:31:01.308Z,20.49
2022-10-01T15:33:49.589Z,20.02
2022-10-01T15:36:19.331Z,19.99
2022-10-01T15:38:49.624Z,19.96
2022-10-01T15:41:39.510Z,19.39
2022-10-01T15:44:34.337Z,18.98
2022-10-01T15:47:24.793Z,18.51
2022-10-01T15:50:08.829Z,19.38
2022-10-01T15:52:51.109Z,19.10
2022-10-01T15:55:44.125Z,18.42
2022-10-01T15:58:21.393Z,19.40
2022-10-01T16:00:48.849Z,19.52
2022-10-01T16:03:39.162Z,19.72
2022-10-01T16:06:39.174Z,20.14
2022-10-01T16:09:32.228Z,22.03
2022-10-01T16:12:14.231Z,21.16
2022-10-01T16:14:58.114Z,21.06
2022-10-01T16:17:36.031Z,21.52
2022-10-01T16:20:15.435Z,19.77
2022-10-01T16:22:49.025Z,19.19
2022-10-01T16:25:28.292Z,18.53
2022-10-01T16:28:20.787Z,18.42
2022-10-01T16:30:51.806Z,18.31
2022-10-01T16:33:19.891Z,18.13
2022-10-01T16:35:51.884Z,18.16
2022-10-01T16:38:23.393Z,17.77
2022-10-01T16:41:07.342Z,18.16
2022-10-01T16:43:38.716Z,17.25
2022-10-01T16:46:12.467Z,17.07
2022-10-01T16:48:42.559Z,16.93
2022-10-01T16:51:13.638Z,16.97
2022-10-01T16:53:44.176Z,17.27
2022-10-01T16:56:13.096Z,16.94
2022-10-01T16:58:45.038Z,16.73
2022-10-01T17:01:19.450Z,17.03
2022-10-01T17:03:47.457Z,16.71
2022-10-01T17:06:18.591Z,16.27
2022-10-01T17:08:52.984Z,16.28
2022-10-01T17:11:25.815Z,16.80
2022-10-01T17:13:59.583Z,16.60
2022-10-01T17:16:31.164Z,16.71
2022-10-01T17:19:02.896Z,16.08
2022-10-01T17:21:37.891Z,16.67
2022-10-01T17:24:12.404Z,16.81
2022-10-01T17:26:49.851Z,16.90
2022-10-01T17:29:21.940Z,16.39
2022-10-01T17:31:55.422Z,16.08
2022-10-01T17:34:26.830Z,15.91
2022-10-01T17:37:02.941Z,16.39
2022-10-01T17:39:34.701Z,16.35
2022-10-01T17:42:08.888Z,16.71
2022-10-01T17:44:45.531Z,16.72
2022-10-01T17:47:17.402Z,16.74
2022-10-01T17:49:51.206Z,16.78
2022-10-01T17:52:21.724Z,16.87
2022-10-01T17:54:52.619Z,16.63
2022-10-01T17:57:22.038Z,13.93
2022-10-01T17:59:54.125Z,14.45
2022-10-01T18:02:41.005Z,15.33
2022-10-01T18:05:15.579Z,15.55
2022-10-01T18:07:47.783Z,15.46
2022-10-01T18:10:20.607Z,15.57
2022-10-01T18:12:52.506Z,15.61
2022-10-01T18:15:28.497Z,15.90
2022-10-01T18:19:24.288Z,15.81
2022-10-01T18:20:52.519Z,15.46
2022-10-01T18:23:25.975Z,15.33
2022-10-01T18:25:56.850Z,15.31
2022-10-01T18:28:37.821Z,15.30
2022-10-01T18:31:30.328Z,14.92
2022-10-01T18:34:14.973Z,15.53
2022-10-01T18:37:21.810Z,14.43
2022-10-01T18:40:10.826Z,14.27
2022-10-01T18:42:48.132Z,14.22
2022-10-01T18:45:57.980Z,14.84
2022-10-01T18:48:30.396Z,15.21
2022-10-01T18:51:26.936Z,15.20
2022-10-01T18:54:38.261Z,14.84
2022-10-01T18:58:06.766Z,15.04
2022-10-01T19:00:58.424Z,14.99
2022-10-01T19:03:56.002Z,14.74
2022-10-01T19:07:04.509Z,14.92
2022-10-01T19:09:58.220Z,15.01
2022-10-01T19:12:54.810Z,14.94
2022-10-01T19:16:04.872Z,15.10
2022-10-01T19:19:16.642Z,15.35
2022-10-01T19:22:32.934Z,15.48
2022-10-01T19:25:45.666Z,15.97
2022-10-01T19:28:26.688Z,15.97
2022-10-01T19:31:24.916Z,16.10
2022-10-01T19:34:10.740Z,15.92
2022-10-01T19:36:53.162Z,15.93
2022-10-01T19:39:38.174Z,15.75
2022-10-01T19:42:31.772Z,14.69
2022-10-01T19:45:27.919Z,14.48
2022-10-01T19:48:28.930Z,14.87
2022-10-01T19:51:11.806Z,14.89
2022-10-01T19:53:53.907Z,15.02
2022-10-01T19:56:36.727Z,14.85
2022-10-01T19:59:17.612Z,14.71
2022-10-01T20:02:28.837Z,14.82
2022-10-01T20:05:15.055Z,15.18
2022-10-01T20:08:16.159Z,15.34
2022-10-01T20:10:57.162Z,15.58
2022-10-01T20:14:06.290Z,15.66
2022-10-01T20:16:49.480Z,16.03
2022-10-01T20:19:34.682Z,16.01
2022-10-01T20:22:11.054Z,16.05
2022-10-01T20:24:51.036Z,16.14
2022-10-01T20:27:33.758Z,16.35
2022-10-01T20:30:11.016Z,16.33
2022-10-01T20:33:31.933Z,16.29
2022-10-01T20:36:36.444Z,14.31
2022-10-01T20:39:40.869Z,14.20
2022-10-01T20:42:36.185Z,14.71
2022-10-01T20:45:17.761Z,15.37
2022-10-01T20:48:44.082Z,15.63
2022-10-01T20:51:48.099Z,15.76
2022-10-01T20:54:44.579Z,15.60
2022-10-01T20:57:28.624Z,15.74
2022-10-01T21:00:08.972Z,15.89
2022-10-01T21:03:11.218Z,15.60
2022-10-01T21:06:14.219Z,15.59
2022-10-01T21:09:23.058Z,15.59
2022-10-01T21:12:09.095Z,13.98
2022-10-01T21:14:54.164Z,14.63
2022-10-01T21:17:49.604Z,14.46
2022-10-01T21:21:03.295Z,13.51
2022-10-01T21:24:16.106Z,13.82
2022-10-01T21:27:26.404Z,13.70
2022-10-01T21:30:14.549Z,14.32
2022-10-01T21:33:12.163Z,14.29
2022-10-01T21:35:55.602Z,14.43
2022-10-01T21:38:40.197Z,14.60
2022-10-01T21:41:49.347Z,14.64
2022-10-01T21:44:43.435Z,14.78
2022-10-01T21:47:23.503Z,14.75
2022-10-01T21:50:02.556Z,14.79
2022-10-01T21:53:28.969Z,14.81
2022-10-01T21:56:38.619Z,13.06
2022-10-01T21:59:48.841Z,13.92
2022-10-01T22:02:26.837Z,14.36
2022-10-01T22:05:09.622Z,14.70
2022-10-01T22:08:18.165Z,14.51
2022-10-01T22:11:19.922Z,14.77
2022-10-01T22:14:04.630Z,14.83
2022-10-01T22:16:44.040Z,15.08
2022-10-01T22:19:18.145Z,15.02
2022-10-01T22:22:02.738Z,15.15
2022-10-01T22:24:41.130Z,15.02
2022-10-01T22:27:20.533Z,15.39
2022-10-01T22:30:43.577Z,15.51
2022-10-01T22:33:18.486Z,14.31
2022-10-01T22:36:12.890Z,14.35
2022-10-01T22:38:56.985Z,14.94
2022-10-01T22:42:02.791Z,15.13
2022-10-01T22:44:30.868Z,14.91
2022-10-01T22:47:21.985Z,14.98
2022-10-01T22:50:35.114Z,14.91
2022-10-01T22:53:19.113Z,14.64
2022-10-01T22:56:07.028Z,13.95
2022-10-01T22:59:09.922Z,12.66
2022-10-01T23:02:06.008Z,12.77
2022-10-01T23:05:11.141Z,12.31
2022-10-01T23:08:02.709Z,13.28
2022-10-01T23:11:07.475Z,12.72
2022-10-01T23:13:52.060Z,13.29
2022-10-01T23:16:43.441Z,13.69
2022-10-01T23:19:45.626Z,13.65
2022-10-01T23:22:31.335Z,13.71
2022-10-01T23:25:48.808Z,12.98
2022-10-01T23:28:55.778Z,12.50
2022-10-01T23:31:37.245Z,13.30
2022-10-01T23:34:19.846Z,13.48
2022-10-01T23:37:15.339Z,13.59
2022-10-01T23:40:12.695Z,13.77
2022-10-01T23:43:02.446Z,14.20
2022-10-01T23:45:57.883Z,14.27
2022-10-01T23:48:25.177Z,14.26
2022-10-01T23:51:30.247Z,14.56
2022-10-01T23:54:05.099Z,14.42
2022-10-01T23:56:53.036Z,14.62
2022-10-01T23:59:55.388Z,14.43
